Codell, Kansas
Current Conditions -  °F | °C
As of 6:35 AM on Friday 28 Nov 2014 (Local Time) from KHYS Reporting Station
Clear Clear  
Wind Chill: 29°   Ceiling: Unl
Heat Index: 34°   Visibility: 10mi
Dew Point: 21°   Wind: 6mph
Humidity: 60%   Direction: 280°W
Pressure: 29.93"   Gusts: NA
Location:  39.2151°N, 99.302°W
Report Text: KHYS 281235Z AUTO 28005KT 10SM CLR 01/M06 A2993 RMK AO1
Loading
Personal Weather Stations






























Interactive Weather Map New forecast layout! Learn more

10-Day Weather Forecast

Advertisements
Track Severe Weather on mobile